Logan Station, North Carolina
Current Conditions -  °F | °C
As of 4:35 PM on Friday 28 Nov 2014 (Local Time) from KFQD Reporting Station
Clear Clear  
Wind Chill: 42°   Ceiling: Unl
Heat Index: 45°   Visibility: 10mi
Dew Point: 17°   Wind: 5mph
Humidity: 33%   Direction: 160°SSE
Pressure: 30.26"   Gusts: NA
Location:  35.3722°N, 82.0134°W
Report Text: KFQD 282135Z AUTO 16004KT 10SM CLR 07/M08 A3026 RMK AO2 T00701085
Loading
Personal Weather Stations






























Interactive Weather Map New forecast layout! Learn more

10-Day Weather Forecast

Advertisements
Track Severe Weather on mobile